首页
METAR-TAF:

METAR-TAF

机场 :

Quesnel, 不列颠哥伦比亚, 加拿大

纬度: 53-02N, 经度: 122-31W, 海拔: 545米

当前天气观测

该预报发布于29分钟前的13:00 UTC
静风
温度 4°C
湿度 100%
气压 1016 hPa
能見度: 14.5公里
天空无云

METAR: CYQZ 221300Z AUTO 00000KT 9SM CLR 04/04 A3000 RMK SLP174

时间: 06:29 (13:29 UTC)

预报

该预报发布于1小时和43分钟前的11:46 UTC
预报有效从22日的 12点(UTC)到 22日的 24点(UTC)
风速3节,风向多变
能見度: 1.6公里
天空无云
轻雾
短暂存在
从 22日的 12点(UTC)到 22日的 15点(UTC)
能見度: 10公里
天空无云
从 22日的 1500点(UTC)
风速5节,风向北转西北
能見度: 10公里
少量云层高于5000英尺
成为
从 22日的 22点(UTC)到 22日的 24点(UTC)
风速8节,风向北转西北

TAF: CYQZ 221146Z 2212/2224 VRB03KT 1SM BR SKC TEMPO 2212/2215 P6SM NSW SKC FM221500 34005KT P6SM FEW050 BECMG 2222/2224 33008KT RMK FCST BASED ON AUTO OBS. NXT FCST BY 221900Z

超过4000个机场的气象观测和天气预报(METAR&TAF报告)。

可查询的气象台以黄色和红色小点在地图上表示。

将鼠标移到小点上方,可查看气象台名称。

然后点击查看天气观测和预报。

如需切换地图:点击带黑十字的绿色按钮放大地图;点击带横线的绿色按钮缩小地图;或者点击绿色箭头查看邻近地区的地图。


METAR-TAF: